createdAt,value
2023-05-22T00:00:17.719Z,5.67
2023-05-22T00:02:46.142Z,6.27
2023-05-22T00:05:18.546Z,7.73
2023-05-22T00:07:46.866Z,6.70
2023-05-22T00:10:15.016Z,5.63
2023-05-22T00:12:44.530Z,6.73
2023-05-22T00:15:13.315Z,6.77
2023-05-22T00:17:42.310Z,7.43
2023-05-22T00:20:11.353Z,6.10
2023-05-22T00:22:39.503Z,5.97
2023-05-22T00:25:09.149Z,7.00
2023-05-22T00:27:37.308Z,7.27
2023-05-22T00:30:09.065Z,7.47
2023-05-22T00:32:37.314Z,6.60
2023-05-22T00:35:06.639Z,8.00
2023-05-22T00:37:34.794Z,7.23
2023-05-22T00:40:03.832Z,7.10
2023-05-22T00:42:32.165Z,7.07
2023-05-22T00:45:00.479Z,6.50
2023-05-22T00:47:30.066Z,6.90
2023-05-22T00:49:58.444Z,8.33
2023-05-22T00:52:26.805Z,7.70
2023-05-22T00:54:55.191Z,7.83
2023-05-22T00:57:24.663Z,7.70
2023-05-22T00:59:52.908Z,7.20
2023-05-22T01:02:21.422Z,7.67
2023-05-22T01:04:50.951Z,7.60
2023-05-22T01:07:19.622Z,7.67
2023-05-22T01:09:47.988Z,7.23
2023-05-22T01:12:27.969Z,7.90
2023-05-22T01:15:02.811Z,6.90
2023-05-22T01:17:37.312Z,7.90
2023-05-22T01:20:14.488Z,8.43
2023-05-22T01:23:00.246Z,9.10
2023-05-22T01:25:55.357Z,8.90
2023-05-22T01:28:37.806Z,6.37
2023-05-22T01:31:11.427Z,6.40
2023-05-22T01:33:47.029Z,9.53
2023-05-22T01:36:16.861Z,9.20
2023-05-22T01:38:45.270Z,8.33
2023-05-22T01:41:13.509Z,8.40
2023-05-22T01:43:42.849Z,8.50
2023-05-22T01:46:12.468Z,7.23
2023-05-22T01:48:40.711Z,7.90
2023-05-22T01:51:13.560Z,9.30
2023-05-22T01:53:47.340Z,7.00
2023-05-22T01:56:17.176Z,7.80
2023-05-22T01:58:52.611Z,8.33
2023-05-22T02:01:23.497Z,7.57
2023-05-22T02:03:56.594Z,8.40
2023-05-22T02:06:27.150Z,7.80
2023-05-22T02:08:56.061Z,7.47
2023-05-22T02:11:26.858Z,6.87
2023-05-22T02:13:57.016Z,6.73
2023-05-22T02:16:28.857Z,5.00
2023-05-22T02:19:06.569Z,6.73
2023-05-22T02:21:37.327Z,8.13
2023-05-22T02:24:06.110Z,6.83
2023-05-22T02:26:34.467Z,9.17
2023-05-22T02:29:03.432Z,8.93
2023-05-22T02:31:33.201Z,8.03
2023-05-22T02:34:01.406Z,8.20
2023-05-22T02:36:30.975Z,6.93
2023-05-22T02:38:59.684Z,7.20
2023-05-22T02:41:28.059Z,6.37
2023-05-22T02:43:56.579Z,6.50
2023-05-22T02:46:24.877Z,7.20
2023-05-22T02:48:54.468Z,3.30
2023-05-22T02:51:22.642Z,5.70
2023-05-22T02:53:50.802Z,7.87
2023-05-22T02:56:19.075Z,6.53
2023-05-22T02:58:47.258Z,2.87
2023-05-22T03:01:15.685Z,7.87
2023-05-22T03:03:44.080Z,8.20
2023-05-22T03:06:13.850Z,6.10
2023-05-22T03:08:43.657Z,6.77
2023-05-22T03:11:11.880Z,7.50
2023-05-22T03:13:40.100Z,7.47
2023-05-22T03:16:08.524Z,7.90
2023-05-22T03:18:40.620Z,9.03
2023-05-22T03:21:08.791Z,5.90
2023-05-22T03:23:38.368Z,7.23
2023-05-22T03:26:06.596Z,7.30
2023-05-22T03:28:37.752Z,7.67
2023-05-22T03:31:09.420Z,7.60
2023-05-22T03:33:51.247Z,7.70
2023-05-22T03:36:19.744Z,6.13
2023-05-22T03:38:49.285Z,6.10
2023-05-22T03:41:17.464Z,8.00
2023-05-22T03:43:46.802Z,6.63
2023-05-22T03:46:15.146Z,6.90
2023-05-22T03:48:43.365Z,7.57
2023-05-22T03:51:11.584Z,6.10
2023-05-22T03:53:39.744Z,8.03
2023-05-22T03:56:09.481Z,7.40
2023-05-22T03:58:37.642Z,7.60
2023-05-22T04:01:10.012Z,6.90
2023-05-22T04:03:38.370Z,6.93
2023-05-22T04:06:07.646Z,6.17
2023-05-22T04:08:35.990Z,6.50
2023-05-22T04:11:05.462Z,7.20
2023-05-22T04:13:35.856Z,7.00
2023-05-22T04:16:04.654Z,7.80
2023-05-22T04:18:32.925Z,7.60
2023-05-22T04:21:01.466Z,7.70
2023-05-22T04:23:29.688Z,7.67
2023-05-22T04:25:58.328Z,7.50
2023-05-22T04:28:26.761Z,8.07
2023-05-22T04:30:57.670Z,7.20
2023-05-22T04:33:25.978Z,8.33
2023-05-22T04:35:54.584Z,7.20
2023-05-22T04:38:26.276Z,6.83
2023-05-22T04:40:55.110Z,6.97
2023-05-22T04:43:26.607Z,6.50
2023-05-22T04:45:56.577Z,7.87
2023-05-22T04:48:25.098Z,6.63
2023-05-22T04:50:54.315Z,6.53
2023-05-22T04:53:22.726Z,7.10
2023-05-22T04:55:50.914Z,6.60
2023-05-22T04:58:19.141Z,6.57
2023-05-22T05:00:47.596Z,6.70
2023-05-22T05:03:17.308Z,7.70
2023-05-22T05:05:46.009Z,7.43
2023-05-22T05:08:14.228Z,7.20
2023-05-22T05:10:42.513Z,8.50
2023-05-22T05:13:10.740Z,7.63
2023-05-22T05:15:40.691Z,8.37
2023-05-22T05:18:09.734Z,7.40
2023-05-22T05:20:39.649Z,4.57
2023-05-22T05:23:10.064Z,6.10
2023-05-22T05:25:39.015Z,6.13
2023-05-22T05:28:11.205Z,4.80
2023-05-22T05:30:40.816Z,7.20
2023-05-22T05:33:27.837Z,3.00
2023-05-22T05:36:16.428Z,6.37
2023-05-22T05:38:46.652Z,6.37
2023-05-22T05:41:16.227Z,6.90
2023-05-22T05:43:46.656Z,5.27
2023-05-22T05:46:15.878Z,5.33
2023-05-22T05:48:44.079Z,5.40
2023-05-22T05:51:12.577Z,6.77
2023-05-22T05:53:44.824Z,3.67
2023-05-22T05:56:13.072Z,4.03
2023-05-22T05:58:41.270Z,5.10
2023-05-22T06:01:36.021Z,5.57
2023-05-22T06:04:05.591Z,2.83
2023-05-22T06:06:36.611Z,3.47
2023-05-22T06:09:12.491Z,6.10
2023-05-22T06:11:59.493Z,5.93
2023-05-22T06:14:27.948Z,6.67
2023-05-22T06:16:56.421Z,6.60
2023-05-22T06:19:24.727Z,7.00
2023-05-22T06:21:53.107Z,7.67
2023-05-22T06:24:23.754Z,7.60
2023-05-22T06:26:51.988Z,6.50
2023-05-22T06:29:20.316Z,5.97
2023-05-22T06:31:49.335Z,7.77
2023-05-22T06:34:21.887Z,6.63
2023-05-22T06:36:52.162Z,6.43
2023-05-22T06:39:26.055Z,5.83
2023-05-22T06:42:29.867Z,6.70
2023-05-22T06:45:21.433Z,7.07
2023-05-22T06:48:05.419Z,6.43
2023-05-22T06:50:38.379Z,6.60
2023-05-22T06:53:06.734Z,6.27
2023-05-22T06:55:36.534Z,6.07
2023-05-22T06:58:11.727Z,7.00
2023-05-22T07:00:40.779Z,7.60
2023-05-22T07:03:15.220Z,5.77
2023-05-22T07:05:59.527Z,6.60
2023-05-22T07:08:30.729Z,6.63
2023-05-22T07:11:01.958Z,7.83
2023-05-22T07:13:32.249Z,7.47
2023-05-22T07:16:01.144Z,6.60
2023-05-22T07:18:29.582Z,6.17
2023-05-22T07:20:58.124Z,6.60
2023-05-22T07:23:26.540Z,5.57
2023-05-22T07:25:54.763Z,6.57
2023-05-22T07:28:27.929Z,5.53
2023-05-22T07:31:12.344Z,5.87
2023-05-22T07:33:40.705Z,7.00
2023-05-22T07:36:09.351Z,5.17
2023-05-22T07:38:40.165Z,5.70
2023-05-22T07:41:08.449Z,6.17
2023-05-22T07:43:38.236Z,6.07
2023-05-22T07:46:07.355Z,5.70
2023-05-22T07:48:43.694Z,6.37
2023-05-22T07:51:13.623Z,5.80
2023-05-22T07:53:42.973Z,7.20
2023-05-22T07:56:11.323Z,6.70
2023-05-22T07:58:41.069Z,5.93
2023-05-22T08:01:09.727Z,6.30
2023-05-22T08:03:38.190Z,6.80
2023-05-22T08:06:06.744Z,6.80
2023-05-22T08:08:35.174Z,5.33
2023-05-22T08:11:04.404Z,6.00
2023-05-22T08:13:33.173Z,5.80
2023-05-22T08:16:02.764Z,5.63
2023-05-22T08:18:30.963Z,5.80
2023-05-22T08:21:00.298Z,5.60
2023-05-22T08:23:28.541Z,6.60
2023-05-22T08:25:56.786Z,5.80
2023-05-22T08:28:25.015Z,5.60
2023-05-22T08:30:54.556Z,7.10
2023-05-22T08:33:24.405Z,6.63
2023-05-22T08:35:52.575Z,6.87
2023-05-22T08:38:20.946Z,6.40
2023-05-22T08:40:50.360Z,6.33
2023-05-22T08:43:22.149Z,6.33
2023-05-22T08:45:56.131Z,6.33
2023-05-22T08:48:25.834Z,6.90
2023-05-22T08:50:57.560Z,5.83
2023-05-22T08:53:26.664Z,6.17
2023-05-22T08:55:54.902Z,6.87
2023-05-22T08:58:23.385Z,6.17
2023-05-22T09:00:51.892Z,6.67
2023-05-22T09:03:21.646Z,6.20
2023-05-22T09:05:52.339Z,6.50
2023-05-22T09:08:21.368Z,6.40
2023-05-22T09:10:49.794Z,5.23
2023-05-22T09:13:28.387Z,6.43
2023-05-22T09:16:00.230Z,6.63
2023-05-22T09:18:29.576Z,6.53
2023-05-22T09:21:04.953Z,6.20
2023-05-22T09:23:35.184Z,6.00
2023-05-22T09:26:04.193Z,5.33
2023-05-22T09:28:35.302Z,5.03
2023-05-22T09:31:04.675Z,5.70
2023-05-22T09:33:33.446Z,4.97
2023-05-22T09:36:03.164Z,6.40
2023-05-22T09:38:31.624Z,6.30
2023-05-22T09:40:59.840Z,5.60
2023-05-22T09:43:28.073Z,5.50
2023-05-22T09:46:02.491Z,4.30
2023-05-22T09:48:31.041Z,5.83
2023-05-22T09:51:02.486Z,4.90
2023-05-22T09:53:31.159Z,4.90
2023-05-22T09:56:01.072Z,5.13
2023-05-22T09:58:32.035Z,4.97
2023-05-22T10:01:00.460Z,5.43
2023-05-22T10:03:28.808Z,5.83
2023-05-22T10:05:57.405Z,5.97
2023-05-22T10:08:29.459Z,5.27
2023-05-22T10:10:58.617Z,5.10
2023-05-22T10:13:27.724Z,4.23
2023-05-22T10:15:56.519Z,3.87
2023-05-22T10:18:24.777Z,4.10
2023-05-22T10:20:53.232Z,5.23
2023-05-22T10:23:22.654Z,5.20
2023-05-22T10:25:53.230Z,5.10
2023-05-22T10:28:25.175Z,5.03
2023-05-22T10:30:59.865Z,5.20
2023-05-22T10:33:58.461Z,5.40
2023-05-22T10:36:37.892Z,4.53
2023-05-22T10:39:13.889Z,5.03
2023-05-22T10:41:43.548Z,5.33
2023-05-22T10:44:11.708Z,5.27
2023-05-22T10:46:39.985Z,4.80
2023-05-22T10:49:08.957Z,5.13
2023-05-22T10:51:37.091Z,5.60
2023-05-22T10:54:05.768Z,4.83
2023-05-22T10:56:35.398Z,5.30
2023-05-22T10:59:07.862Z,5.00
2023-05-22T11:01:38.389Z,5.53
2023-05-22T11:04:16.165Z,4.93
2023-05-22T11:06:50.678Z,4.87
2023-05-22T11:09:22.925Z,4.97
2023-05-22T11:12:19.623Z,5.33
2023-05-22T11:14:58.303Z,5.40
2023-05-22T11:17:29.124Z,4.90
2023-05-22T11:20:02.194Z,5.20
2023-05-22T11:22:36.726Z,4.63
2023-05-22T11:25:08.177Z,4.63
2023-05-22T11:27:37.571Z,4.97
2023-05-22T11:30:08.568Z,4.40
2023-05-22T11:32:37.563Z,4.73
2023-05-22T11:35:08.276Z,4.20
2023-05-22T11:37:39.688Z,5.13
2023-05-22T11:40:09.003Z,4.93
2023-05-22T11:42:37.761Z,4.70
2023-05-22T11:45:08.555Z,5.13
2023-05-22T11:47:36.878Z,4.77
2023-05-22T11:50:06.828Z,4.23
2023-05-22T11:52:36.421Z,4.50
2023-05-22T11:55:06.343Z,3.57
2023-05-22T11:57:35.418Z,4.53
2023-05-22T12:00:06.467Z,4.23
2023-05-22T12:02:45.862Z,4.20
2023-05-22T12:05:16.005Z,4.53
2023-05-22T12:07:44.660Z,3.83
2023-05-22T12:10:12.905Z,4.33
2023-05-22T12:12:41.321Z,4.20
2023-05-22T12:15:10.604Z,4.10
2023-05-22T12:17:39.281Z,3.30
2023-05-22T12:20:09.391Z,4.00
2023-05-22T12:22:42.318Z,3.30
2023-05-22T12:25:15.985Z,4.23
2023-05-22T12:27:44.700Z,3.80
2023-05-22T12:30:15.123Z,4.10
2023-05-22T12:32:48.413Z,4.47
2023-05-22T12:35:19.132Z,3.80
2023-05-22T12:37:51.240Z,4.20
2023-05-22T12:40:19.740Z,4.67
2023-05-22T12:42:50.228Z,4.97
2023-05-22T12:45:18.855Z,4.10
2023-05-22T12:47:47.384Z,4.67
2023-05-22T12:50:17.055Z,3.37
2023-05-22T12:52:45.270Z,4.73
2023-05-22T12:55:13.457Z,4.50
2023-05-22T12:57:41.661Z,4.03
2023-05-22T13:00:11.313Z,4.33
2023-05-22T13:02:39.648Z,3.67
2023-05-22T13:05:08.501Z,4.13
2023-05-22T13:07:38.206Z,3.70
2023-05-22T13:10:07.310Z,4.37
2023-05-22T13:12:35.501Z,3.97
2023-05-22T13:15:04.129Z,3.93
2023-05-22T13:17:33.938Z,3.63
2023-05-22T13:20:02.090Z,4.90
2023-05-22T13:22:30.277Z,4.50
2023-05-22T13:24:59.858Z,3.60
2023-05-22T13:27:28.230Z,4.30
2023-05-22T13:29:56.444Z,3.90
2023-05-22T13:32:24.668Z,4.50
2023-05-22T13:34:52.866Z,4.60
2023-05-22T13:37:22.262Z,4.27
2023-05-22T13:39:50.424Z,4.30
2023-05-22T13:42:20.271Z,4.97
2023-05-22T13:44:48.478Z,4.50
2023-05-22T13:47:16.786Z,4.20
2023-05-22T13:49:45.152Z,4.40
2023-05-22T13:52:13.284Z,4.30
2023-05-22T13:54:41.571Z,4.10
2023-05-22T13:57:09.795Z,4.70
2023-05-22T13:59:39.282Z,4.23
2023-05-22T14:02:08.618Z,4.43
2023-05-22T14:04:36.872Z,4.03
2023-05-22T14:07:05.486Z,3.90
2023-05-22T14:09:33.682Z,4.10
2023-05-22T14:12:02.660Z,4.50
2023-05-22T14:14:30.819Z,4.90
2023-05-22T14:17:00.564Z,4.23
2023-05-22T14:19:28.933Z,4.20
2023-05-22T14:21:57.075Z,4.90
2023-05-22T14:24:25.229Z,4.30
2023-05-22T14:26:57.941Z,4.10
2023-05-22T14:29:26.569Z,4.23
2023-05-22T14:32:04.998Z,4.47
2023-05-22T14:34:33.154Z,4.40
2023-05-22T14:37:01.323Z,4.67
2023-05-22T14:39:29.594Z,4.63
2023-05-22T14:41:57.810Z,4.30
2023-05-22T14:44:25.934Z,4.03
2023-05-22T14:46:54.772Z,3.50
2023-05-22T14:49:24.318Z,4.10
2023-05-22T14:51:52.989Z,4.17
2023-05-22T14:54:23.696Z,3.63
2023-05-22T14:56:51.868Z,3.40
2023-05-22T14:59:20.050Z,4.00
2023-05-22T15:01:50.501Z,3.43
2023-05-22T15:04:18.923Z,4.30
2023-05-22T15:06:48.468Z,3.50
2023-05-22T15:09:17.126Z,3.10
2023-05-22T15:11:46.840Z,3.30
2023-05-22T15:14:14.973Z,4.00
2023-05-22T15:16:43.696Z,3.20
2023-05-22T15:19:12.017Z,3.17
2023-05-22T15:21:42.165Z,3.03
2023-05-22T15:24:11.777Z,3.70
2023-05-22T15:26:39.915Z,3.30
2023-05-22T15:29:08.120Z,3.60
2023-05-22T15:31:36.482Z,3.70
2023-05-22T15:34:04.894Z,3.50
2023-05-22T15:36:33.889Z,3.80
2023-05-22T15:39:02.845Z,3.77
2023-05-22T15:41:32.411Z,3.50
2023-05-22T15:44:00.612Z,3.80
2023-05-22T15:46:29.044Z,3.73
2023-05-22T15:48:57.394Z,3.60
2023-05-22T15:51:25.692Z,4.70
2023-05-22T15:53:53.887Z,3.97
2023-05-22T15:56:23.458Z,3.63
2023-05-22T15:58:53.090Z,3.97
2023-05-22T16:01:21.341Z,3.90
2023-05-22T16:03:49.797Z,3.23
2023-05-22T16:06:18.112Z,3.90
2023-05-22T16:08:46.289Z,3.77
2023-05-22T16:11:14.666Z,3.47
2023-05-22T16:13:43.058Z,3.30
2023-05-22T16:16:13.465Z,3.23
2023-05-22T16:18:41.738Z,3.27
2023-05-22T16:21:09.973Z,3.60
2023-05-22T16:23:38.185Z,3.33
2023-05-22T16:26:06.522Z,2.87
2023-05-22T16:28:34.782Z,3.40
2023-05-22T16:31:03.072Z,2.97
2023-05-22T16:33:32.779Z,3.67
2023-05-22T16:36:00.925Z,3.80
2023-05-22T16:38:29.139Z,3.70
2023-05-22T16:40:58.087Z,3.30
2023-05-22T16:43:26.292Z,3.73
2023-05-22T16:45:55.337Z,3.60
2023-05-22T16:48:23.963Z,3.40
2023-05-22T16:50:53.603Z,4.10
2023-05-22T16:53:21.951Z,3.93
2023-05-22T16:55:50.196Z,4.30
2023-05-22T16:58:18.536Z,3.67
2023-05-22T17:00:47.019Z,3.47
2023-05-22T17:03:15.412Z,4.10
2023-05-22T17:05:44.464Z,3.90
2023-05-22T17:08:14.124Z,3.90
2023-05-22T17:10:42.700Z,4.50
2023-05-22T17:13:12.673Z,3.57
2023-05-22T17:15:41.147Z,3.60
2023-05-22T17:18:09.627Z,3.77
2023-05-22T17:20:37.906Z,3.53
2023-05-22T17:23:07.350Z,4.03
2023-05-22T17:25:37.059Z,3.63
2023-05-22T17:28:06.041Z,4.07
2023-05-22T17:30:35.187Z,4.17
2023-05-22T17:33:05.348Z,4.07
2023-05-22T17:35:35.130Z,3.90
2023-05-22T17:38:04.962Z,4.00
2023-05-22T17:40:43.927Z,4.17
2023-05-22T17:43:19.656Z,3.40
2023-05-22T17:45:50.592Z,5.90
2023-05-22T17:48:27.575Z,4.77
2023-05-22T17:50:57.741Z,4.03
2023-05-22T17:53:27.815Z,4.10
2023-05-22T17:55:57.348Z,3.93
2023-05-22T17:58:28.041Z,4.10
2023-05-22T18:00:57.706Z,3.93
2023-05-22T18:03:27.391Z,4.30
2023-05-22T18:05:56.589Z,4.17
2023-05-22T18:08:25.805Z,3.93
2023-05-22T18:10:56.434Z,7.33
2023-05-22T18:13:25.514Z,3.50
2023-05-22T18:15:56.381Z,4.20
2023-05-22T18:18:25.574Z,4.50
2023-05-22T18:20:55.186Z,3.43
2023-05-22T18:23:24.451Z,4.20
2023-05-22T18:25:53.719Z,3.60
2023-05-22T18:28:27.048Z,4.13
2023-05-22T18:30:59.198Z,4.67
2023-05-22T18:33:28.842Z,4.40
2023-05-22T18:35:58.480Z,4.00
2023-05-22T18:38:28.017Z,3.60
2023-05-22T18:40:57.971Z,4.30
2023-05-22T18:43:28.824Z,4.40
2023-05-22T18:45:59.857Z,4.77
2023-05-22T18:48:29.847Z,3.67
2023-05-22T18:50:59.554Z,4.27
2023-05-22T18:53:28.813Z,4.77
2023-05-22T18:55:58.034Z,4.43
2023-05-22T18:58:27.485Z,4.50
2023-05-22T19:00:57.146Z,4.03
2023-05-22T19:03:27.962Z,4.87
2023-05-22T19:05:57.322Z,5.03
2023-05-22T19:08:27.465Z,4.53
2023-05-22T19:11:00.515Z,5.00
2023-05-22T19:13:29.978Z,3.87
2023-05-22T19:15:59.389Z,4.20
2023-05-22T19:18:30.141Z,4.37
2023-05-22T19:20:59.680Z,5.27
2023-05-22T19:23:30.056Z,4.10
2023-05-22T19:26:00.685Z,4.60
2023-05-22T19:28:31.656Z,4.97
2023-05-22T19:31:03.574Z,4.33
2023-05-22T19:33:34.406Z,4.97
2023-05-22T19:36:03.626Z,4.77
2023-05-22T19:38:32.793Z,4.17
2023-05-22T19:41:01.902Z,3.73
2023-05-22T19:43:31.830Z,4.30
2023-05-22T19:46:00.928Z,4.43
2023-05-22T19:48:32.173Z,4.27
2023-05-22T19:51:02.562Z,4.53
2023-05-22T19:53:32.705Z,4.40
2023-05-22T19:56:02.447Z,4.83
2023-05-22T19:58:31.349Z,4.90
2023-05-22T20:01:00.145Z,5.17
2023-05-22T20:03:29.020Z,4.67
2023-05-22T20:05:57.823Z,4.63
2023-05-22T20:08:28.978Z,4.80
2023-05-22T20:10:57.513Z,5.70
2023-05-22T20:13:25.729Z,5.47
2023-05-22T20:15:54.062Z,4.80
2023-05-22T20:18:23.416Z,4.30
2023-05-22T20:20:52.625Z,4.37
2023-05-22T20:23:21.859Z,4.17
2023-05-22T20:25:52.382Z,4.97
2023-05-22T20:28:21.425Z,3.60
2023-05-22T20:30:51.785Z,4.60
2023-05-22T20:33:20.830Z,4.70
2023-05-22T20:35:52.820Z,5.97
2023-05-22T20:38:22.692Z,4.80
2023-05-22T20:40:53.178Z,4.63
2023-05-22T20:43:22.010Z,4.90
2023-05-22T20:45:50.781Z,4.90
2023-05-22T20:48:19.533Z,4.50
2023-05-22T20:50:48.966Z,5.13
2023-05-22T20:53:17.628Z,5.13
2023-05-22T20:55:46.659Z,4.90
2023-05-22T20:58:17.372Z,5.00
2023-05-22T21:00:45.889Z,4.87
2023-05-22T21:03:14.062Z,4.73
2023-05-22T21:05:42.320Z,4.90
2023-05-22T21:08:10.607Z,5.23
2023-05-22T21:10:39.100Z,5.27
2023-05-22T21:13:07.760Z,4.30
2023-05-22T21:15:37.413Z,5.23
2023-05-22T21:18:05.646Z,5.60
2023-05-22T21:20:33.825Z,5.00
2023-05-22T21:23:01.999Z,4.83
2023-05-22T21:25:30.412Z,4.50
2023-05-22T21:27:58.574Z,4.67
2023-05-22T21:30:26.716Z,5.07
2023-05-22T21:32:56.383Z,5.37
2023-05-22T21:35:24.611Z,5.50
2023-05-22T21:37:53.814Z,5.20
2023-05-22T21:40:22.006Z,5.37
2023-05-22T21:42:50.154Z,5.33
2023-05-22T21:45:18.309Z,5.57
2023-05-22T21:47:46.510Z,5.90
2023-05-22T21:50:16.317Z,5.40
2023-05-22T21:52:44.534Z,5.73
2023-05-22T21:55:12.729Z,4.57
2023-05-22T21:57:40.958Z,4.33
2023-05-22T22:00:10.212Z,4.93
2023-05-22T22:02:38.402Z,4.80
2023-05-22T22:05:07.301Z,5.50
2023-05-22T22:07:36.891Z,4.97
2023-05-22T22:10:05.751Z,4.30
2023-05-22T22:12:33.893Z,5.03
2023-05-22T22:15:02.457Z,5.40
2023-05-22T22:17:30.706Z,4.90
2023-05-22T22:19:58.876Z,4.70
2023-05-22T22:22:27.044Z,4.77
2023-05-22T22:24:56.635Z,5.00
2023-05-22T22:27:25.554Z,5.47
2023-05-22T22:29:53.670Z,5.30
2023-05-22T22:32:21.838Z,5.67
2023-05-22T22:34:53.764Z,4.93
2023-05-22T22:37:22.077Z,5.10
2023-05-22T22:39:50.215Z,4.53
2023-05-22T22:42:19.749Z,4.57
2023-05-22T22:44:47.910Z,5.40
2023-05-22T22:47:16.061Z,4.63
2023-05-22T22:49:44.197Z,4.13
2023-05-22T22:52:12.353Z,3.87
2023-05-22T22:54:41.930Z,4.67
2023-05-22T22:57:12.685Z,3.77
2023-05-22T22:59:42.992Z,5.87
2023-05-22T23:02:11.169Z,5.03
2023-05-22T23:04:39.372Z,4.77
2023-05-22T23:07:08.106Z,5.00
2023-05-22T23:09:36.417Z,4.87
2023-05-22T23:12:06.443Z,4.97
2023-05-22T23:14:37.653Z,4.00
2023-05-22T23:17:07.234Z,5.40
2023-05-22T23:19:35.472Z,4.60
2023-05-22T23:22:03.668Z,4.60
2023-05-22T23:24:31.886Z,4.47
2023-05-22T23:27:00.159Z,3.13
2023-05-22T23:29:28.306Z,5.40
2023-05-22T23:31:56.676Z,4.40
2023-05-22T23:34:26.275Z,4.83
2023-05-22T23:36:54.416Z,4.90
2023-05-22T23:39:22.570Z,5.90
2023-05-22T23:41:54.278Z,4.77
2023-05-22T23:44:22.816Z,4.83
2023-05-22T23:46:51.090Z,4.40
2023-05-22T23:49:19.293Z,5.70
2023-05-22T23:51:48.922Z,4.13
2023-05-22T23:54:18.042Z,5.37
2023-05-22T23:56:46.241Z,5.20
2023-05-22T23:59:14.486Z,4.93
